createdAt,value
2023-02-04T00:00:30.446Z,7.57
2023-02-04T00:01:34.131Z,6.10
2023-02-04T00:02:38.177Z,6.90
2023-02-04T00:03:40.464Z,6.80
2023-02-04T00:04:42.684Z,6.05
2023-02-04T00:05:44.954Z,7.82
2023-02-04T00:06:47.142Z,6.20
2023-02-04T00:07:49.376Z,6.20
2023-02-04T00:08:52.117Z,7.72
2023-02-04T00:09:54.382Z,6.75
2023-02-04T00:10:56.689Z,7.20
2023-02-04T00:11:58.886Z,8.23
2023-02-04T00:13:01.131Z,7.47
2023-02-04T00:14:03.415Z,10.68
2023-02-04T00:15:06.174Z,7.97
2023-02-04T00:16:08.397Z,7.63
2023-02-04T00:17:12.938Z,7.57
2023-02-04T00:18:15.226Z,6.72
2023-02-04T00:19:17.485Z,10.18
2023-02-04T00:20:19.891Z,8.30
2023-02-04T00:21:22.258Z,9.20
2023-02-04T00:22:26.490Z,7.47
2023-02-04T00:23:28.803Z,8.43
2023-02-04T00:24:31.249Z,6.93
2023-02-04T00:25:33.446Z,7.53
2023-02-04T00:26:35.674Z,8.48
2023-02-04T00:27:38.667Z,7.15
2023-02-04T00:28:40.835Z,6.38
2023-02-04T00:29:43.100Z,7.75
2023-02-04T00:30:45.411Z,6.72
2023-02-04T00:31:47.673Z,7.25
2023-02-04T00:32:54.584Z,7.00
2023-02-04T00:33:56.876Z,7.43
2023-02-04T00:34:59.414Z,7.35
2023-02-04T00:36:01.612Z,6.97
2023-02-04T00:37:03.831Z,7.78
2023-02-04T00:38:06.696Z,6.90
2023-02-04T00:39:08.963Z,7.20
2023-02-04T00:40:11.852Z,7.38
2023-02-04T00:41:15.213Z,7.40
2023-02-04T00:42:17.659Z,7.47
2023-02-04T00:43:19.905Z,7.47
2023-02-04T00:44:22.161Z,7.20
2023-02-04T00:45:24.695Z,8.10
2023-02-04T00:46:27.004Z,8.02
2023-02-04T00:47:29.359Z,7.93
2023-02-04T00:48:31.952Z,7.88
2023-02-04T00:49:34.974Z,8.57
2023-02-04T00:50:39.751Z,7.57
2023-02-04T00:51:46.302Z,7.78
2023-02-04T00:52:48.541Z,8.88
2023-02-04T00:53:51.153Z,6.85
2023-02-04T00:54:53.373Z,8.95
2023-02-04T00:55:55.546Z,7.15
2023-02-04T00:56:58.010Z,6.78
2023-02-04T00:58:00.356Z,8.13
2023-02-04T00:59:02.616Z,7.68
2023-02-04T01:00:05.944Z,5.90
2023-02-04T01:01:08.182Z,7.20
2023-02-04T01:02:10.412Z,7.68
2023-02-04T01:03:12.719Z,6.38
2023-02-04T01:04:16.012Z,6.47
2023-02-04T01:05:19.800Z,8.13
2023-02-04T01:06:22.163Z,7.70
2023-02-04T01:07:24.878Z,7.88
2023-02-04T01:08:28.408Z,7.03
2023-02-04T01:09:30.937Z,8.10
2023-02-04T01:10:33.754Z,8.48
2023-02-04T01:11:36.627Z,7.38
2023-02-04T01:12:39.039Z,5.18
2023-02-04T01:13:41.675Z,4.10
2023-02-04T01:14:44.082Z,4.25
2023-02-04T01:15:46.861Z,2.83
2023-02-04T01:16:50.369Z,2.33
2023-02-04T01:17:52.713Z,2.60
2023-02-04T01:18:55.912Z,2.30
2023-02-04T01:19:59.827Z,2.45
2023-02-04T01:21:02.077Z,2.30
2023-02-04T01:22:04.287Z,2.40
2023-02-04T01:23:07.815Z,2.45
2023-02-04T01:24:10.066Z,2.20
2023-02-04T01:25:32.379Z,2.53
2023-02-04T01:26:35.274Z,1.90
2023-02-04T01:27:37.505Z,1.90
2023-02-04T01:28:39.680Z,1.63
2023-02-04T01:29:41.939Z,2.00
2023-02-04T01:30:44.183Z,2.03
2023-02-04T01:31:46.634Z,1.80
2023-02-04T01:32:48.834Z,2.03
2023-02-04T01:33:51.296Z,1.95
2023-02-04T01:34:53.969Z,2.03
2023-02-04T01:35:56.844Z,1.90
2023-02-04T01:36:59.106Z,1.70
2023-02-04T01:38:01.398Z,1.98
2023-02-04T01:39:04.879Z,1.90
2023-02-04T01:40:07.831Z,1.48
2023-02-04T01:41:10.230Z,1.90
2023-02-04T01:42:12.614Z,1.88
2023-02-04T01:43:15.620Z,1.95
2023-02-04T01:44:17.865Z,1.73
2023-02-04T01:45:20.218Z,1.80
2023-02-04T01:46:22.411Z,1.40
2023-02-04T01:47:25.501Z,1.65
2023-02-04T01:48:27.809Z,1.60
2023-02-04T01:49:30.044Z,1.40
2023-02-04T01:50:33.425Z,1.50
2023-02-04T01:51:37.031Z,1.30
2023-02-04T01:52:40.456Z,1.40
2023-02-04T01:53:42.906Z,1.27
2023-02-04T01:54:45.219Z,1.50
2023-02-04T01:55:47.952Z,1.60
2023-02-04T01:56:51.646Z,1.45
2023-02-04T01:57:54.258Z,1.67
2023-02-04T01:58:58.623Z,1.40
2023-02-04T02:02:39.520Z,1.30
2023-02-04T02:03:42.431Z,1.63
2023-02-04T02:04:44.664Z,1.38
2023-02-04T02:05:51.146Z,1.50
2023-02-04T02:06:58.579Z,1.65
2023-02-04T02:08:03.283Z,1.40
2023-02-04T02:09:05.944Z,1.45
2023-02-04T02:10:10.775Z,1.50
2023-02-04T02:11:12.911Z,1.42
2023-02-04T02:12:15.120Z,1.50
2023-02-04T02:13:19.024Z,1.35
2023-02-04T02:14:22.464Z,2.05
2023-02-04T02:15:26.609Z,1.70
2023-02-04T02:16:28.851Z,1.50
2023-02-04T02:17:31.269Z,1.50
2023-02-04T02:18:33.571Z,1.65
2023-02-04T02:19:38.184Z,2.00
2023-02-04T02:20:43.683Z,2.20
2023-02-04T02:22:29.219Z,1.80
2023-02-04T02:23:54.700Z,1.70
2023-02-04T02:24:56.937Z,1.73
2023-02-04T02:25:59.102Z,2.10
2023-02-04T02:27:08.345Z,1.70
2023-02-04T02:28:13.909Z,2.17
2023-02-04T02:29:16.221Z,2.15
2023-02-04T02:30:19.892Z,2.10
2023-02-04T02:31:23.684Z,2.20
2023-02-04T02:32:26.120Z,1.80
2023-02-04T02:33:28.700Z,2.20
2023-02-04T02:34:31.764Z,1.90
2023-02-04T02:35:34.631Z,1.73
2023-02-04T02:36:37.071Z,1.65
2023-02-04T02:37:39.394Z,2.05
2023-02-04T02:38:42.053Z,1.65
2023-02-04T02:39:45.883Z,1.80
2023-02-04T02:40:49.852Z,1.92
2023-02-04T02:41:52.354Z,1.95
2023-02-04T02:42:54.871Z,1.55
2023-02-04T02:43:57.091Z,1.80
2023-02-04T02:45:03.221Z,2.00
2023-02-04T02:46:06.453Z,2.00
2023-02-04T02:47:14.849Z,1.88
2023-02-04T02:48:17.496Z,1.90
2023-02-04T02:49:20.221Z,2.10
2023-02-04T02:50:25.757Z,2.10
2023-02-04T02:51:28.367Z,2.00
2023-02-04T02:52:30.732Z,2.22
2023-02-04T02:53:33.019Z,2.50
2023-02-04T02:54:35.344Z,1.90
2023-02-04T02:55:40.995Z,2.28
2023-02-04T02:56:43.375Z,2.28
2023-02-04T02:57:47.418Z,2.10
2023-02-04T02:58:49.639Z,2.10
2023-02-04T02:59:52.266Z,1.83
2023-02-04T03:00:54.695Z,2.35
2023-02-04T03:02:02.014Z,1.92
2023-02-04T03:03:15.834Z,2.20
2023-02-04T03:04:20.345Z,2.67
2023-02-04T03:05:23.956Z,2.28
2023-02-04T03:06:26.622Z,2.00
2023-02-04T03:07:28.877Z,2.42
2023-02-04T03:08:31.189Z,2.28
2023-02-04T03:09:34.237Z,2.05
2023-02-04T03:10:36.861Z,2.38
2023-02-04T03:11:39.104Z,2.20
2023-02-04T03:12:43.168Z,2.78
2023-02-04T03:13:45.476Z,2.42
2023-02-04T03:14:47.668Z,2.28
2023-02-04T03:15:50.179Z,2.20
2023-02-04T03:16:54.208Z,2.30
2023-02-04T03:17:56.634Z,2.40
2023-02-04T03:19:02.625Z,2.70
2023-02-04T03:20:05.532Z,2.35
2023-02-04T03:21:08.163Z,2.58
2023-02-04T03:22:12.232Z,2.00
2023-02-04T03:23:15.173Z,2.40
2023-02-04T03:24:18.396Z,2.25
2023-02-04T03:25:24.423Z,2.67
2023-02-04T03:26:27.129Z,2.17
2023-02-04T03:27:29.492Z,2.25
2023-02-04T03:28:32.074Z,2.72
2023-02-04T03:29:34.288Z,2.50
2023-02-04T03:30:36.498Z,2.30
2023-02-04T03:31:39.029Z,2.70
2023-02-04T03:32:41.562Z,2.30
2023-02-04T03:33:43.790Z,2.60
2023-02-04T03:34:46.093Z,2.33
2023-02-04T03:35:48.311Z,2.65
2023-02-04T03:36:50.540Z,2.55
2023-02-04T03:37:52.789Z,3.00
2023-02-04T03:38:55.096Z,2.78
2023-02-04T03:39:57.296Z,2.97
2023-02-04T03:40:59.614Z,2.60
2023-02-04T03:42:01.853Z,3.17
2023-02-04T03:43:04.097Z,2.78
2023-02-04T03:44:06.284Z,3.00
2023-02-04T03:45:09.125Z,3.30
2023-02-04T03:46:11.612Z,2.83
2023-02-04T03:47:13.899Z,2.67
2023-02-04T03:48:16.145Z,2.97
2023-02-04T03:49:18.360Z,2.80
2023-02-04T03:50:20.602Z,2.40
2023-02-04T03:51:22.887Z,2.40
2023-02-04T03:52:25.179Z,2.85
2023-02-04T03:53:27.578Z,2.95
2023-02-04T03:54:29.770Z,2.50
2023-02-04T03:55:33.037Z,3.50
2023-02-04T03:56:35.265Z,3.00
2023-02-04T03:57:37.602Z,3.30
2023-02-04T03:58:39.865Z,3.30
2023-02-04T03:59:42.319Z,3.40
2023-02-04T04:00:44.600Z,3.47
2023-02-04T04:01:47.187Z,3.45
2023-02-04T04:02:50.335Z,3.53
2023-02-04T04:03:52.587Z,4.22
2023-02-04T04:04:54.765Z,3.40
2023-02-04T04:05:56.998Z,3.05
2023-02-04T04:06:59.291Z,3.22
2023-02-04T04:08:01.755Z,3.38
2023-02-04T04:09:04.856Z,3.85
2023-02-04T04:10:07.469Z,4.03
2023-02-04T04:11:09.708Z,3.15
2023-02-04T04:12:11.879Z,3.70
2023-02-04T04:13:14.298Z,3.95
2023-02-04T04:14:16.633Z,3.20
2023-02-04T04:15:18.818Z,3.25
2023-02-04T04:16:21.782Z,3.85
2023-02-04T04:17:24.008Z,3.22
2023-02-04T04:18:26.274Z,3.10
2023-02-04T04:19:28.469Z,2.88
2023-02-04T04:20:31.281Z,3.53
2023-02-04T04:21:33.689Z,3.90
2023-02-04T04:22:36.116Z,2.85
2023-02-04T04:23:38.393Z,3.13
2023-02-04T04:24:40.815Z,3.38
2023-02-04T04:25:43.010Z,3.05
2023-02-04T04:26:45.249Z,3.40
2023-02-04T04:27:47.485Z,2.92
2023-02-04T04:28:49.976Z,3.72
2023-02-04T04:29:52.253Z,3.03
2023-02-04T04:30:54.595Z,3.08
2023-02-04T04:31:56.961Z,3.33
2023-02-04T04:32:59.420Z,2.60
2023-02-04T04:34:02.130Z,3.03
2023-02-04T04:35:04.463Z,3.20
2023-02-04T04:36:07.485Z,3.33
2023-02-04T04:37:09.945Z,3.20
2023-02-04T04:38:12.139Z,3.22
2023-02-04T04:39:14.482Z,3.85
2023-02-04T04:40:17.107Z,3.22
2023-02-04T04:41:19.459Z,3.50
2023-02-04T04:42:21.630Z,3.40
2023-02-04T04:43:23.925Z,4.05
2023-02-04T04:44:26.226Z,3.05
2023-02-04T04:45:28.407Z,4.10
2023-02-04T04:46:31.101Z,4.90
2023-02-04T04:47:33.250Z,4.00
2023-02-04T04:48:35.406Z,4.57
2023-02-04T04:49:37.621Z,3.92
2023-02-04T04:50:39.947Z,3.45
2023-02-04T04:51:42.165Z,4.00
2023-02-04T04:52:44.414Z,3.90
2023-02-04T04:53:46.693Z,3.38
2023-02-04T04:54:49.025Z,4.43
2023-02-04T04:55:51.279Z,3.53
2023-02-04T04:56:53.571Z,3.92
2023-02-04T04:57:55.774Z,5.22
2023-02-04T04:58:57.986Z,4.30
2023-02-04T05:00:00.261Z,3.97
2023-02-04T05:01:02.693Z,5.18
2023-02-04T05:02:04.929Z,4.32
2023-02-04T05:03:07.614Z,3.85
2023-02-04T05:04:09.796Z,4.40
2023-02-04T05:05:12.550Z,3.53
2023-02-04T05:06:15.065Z,4.80
2023-02-04T05:07:17.375Z,4.03
2023-02-04T05:08:20.831Z,3.90
2023-02-04T05:09:23.200Z,3.75
2023-02-04T05:10:25.480Z,4.32
2023-02-04T05:11:27.749Z,5.15
2023-02-04T05:12:30.051Z,4.97
2023-02-04T05:13:32.550Z,3.97
2023-02-04T05:14:35.059Z,5.82
2023-02-04T05:15:37.324Z,5.18
2023-02-04T05:16:39.647Z,5.10
2023-02-04T05:17:41.897Z,5.53
2023-02-04T05:18:44.519Z,4.60
2023-02-04T05:19:46.700Z,4.97
2023-02-04T05:20:49.123Z,5.75
2023-02-04T05:21:51.365Z,5.13
2023-02-04T05:22:55.921Z,4.60
2023-02-04T05:23:58.120Z,5.25
2023-02-04T05:25:00.295Z,5.65
2023-02-04T05:26:02.548Z,4.40
2023-02-04T05:27:04.923Z,4.88
2023-02-04T05:28:07.263Z,4.88
2023-02-04T05:29:10.781Z,4.20
2023-02-04T05:30:13.678Z,4.35
2023-02-04T05:31:16.119Z,4.20
2023-02-04T05:32:18.379Z,4.53
2023-02-04T05:33:20.585Z,4.63
2023-02-04T05:34:22.750Z,4.38
2023-02-04T05:35:25.041Z,5.03
2023-02-04T05:36:27.337Z,5.55
2023-02-04T05:37:29.595Z,5.50
2023-02-04T05:38:31.825Z,4.93
2023-02-04T05:39:34.002Z,4.47
2023-02-04T05:40:36.354Z,5.13
2023-02-04T05:41:39.538Z,4.75
2023-02-04T05:42:41.913Z,5.10
2023-02-04T05:43:44.225Z,4.00
2023-02-04T05:44:46.567Z,4.50
2023-02-04T05:45:48.914Z,4.78
2023-02-04T05:46:51.223Z,4.57
2023-02-04T05:47:53.443Z,5.03
2023-02-04T05:48:55.649Z,4.25
2023-02-04T05:49:57.828Z,4.38
2023-02-04T05:51:00.072Z,4.88
2023-02-04T05:52:02.400Z,4.10
2023-02-04T05:53:04.667Z,5.18
2023-02-04T05:54:06.960Z,5.18
2023-02-04T05:55:11.460Z,4.68
2023-02-04T05:56:13.709Z,5.03
2023-02-04T05:57:15.950Z,5.07
2023-02-04T05:58:18.186Z,4.47
2023-02-04T05:59:20.442Z,5.32
2023-02-04T06:00:22.807Z,6.05
2023-02-04T06:01:24.997Z,5.50
2023-02-04T06:02:27.276Z,7.30
2023-02-04T06:03:30.941Z,6.18
2023-02-04T06:04:33.253Z,6.72
2023-02-04T06:05:35.531Z,6.03
2023-02-04T06:06:37.758Z,5.43
2023-02-04T06:07:39.987Z,5.45
2023-02-04T06:08:42.160Z,5.78
2023-02-04T06:09:44.843Z,5.70
2023-02-04T06:10:47.006Z,5.45
2023-02-04T06:11:49.259Z,5.82
2023-02-04T06:12:51.502Z,4.90
2023-02-04T06:13:53.817Z,4.53
2023-02-04T06:14:56.117Z,4.85
2023-02-04T06:15:58.489Z,4.95
2023-02-04T06:17:00.740Z,4.22
2023-02-04T06:18:03.109Z,4.47
2023-02-04T06:19:05.549Z,4.72
2023-02-04T06:20:08.437Z,5.43
2023-02-04T06:21:10.663Z,3.97
2023-02-04T06:22:12.870Z,4.85
2023-02-04T06:23:15.113Z,4.45
2023-02-04T06:24:17.458Z,4.35
2023-02-04T06:25:20.113Z,4.65
2023-02-04T06:26:22.443Z,4.65
2023-02-04T06:27:24.680Z,4.35
2023-02-04T06:28:26.864Z,4.53
2023-02-04T06:29:29.101Z,4.78
2023-02-04T06:30:31.994Z,5.15
2023-02-04T06:31:34.679Z,4.75
2023-02-04T06:32:36.918Z,5.22
2023-02-04T06:33:39.438Z,4.53
2023-02-04T06:34:41.609Z,4.70
2023-02-04T06:35:43.795Z,4.90
2023-02-04T06:36:46.015Z,5.13
2023-02-04T06:37:48.913Z,6.05
2023-02-04T06:38:51.099Z,6.07
2023-02-04T06:39:54.562Z,6.07
2023-02-04T06:40:56.823Z,4.80
2023-02-04T06:41:59.004Z,4.97
2023-02-04T06:43:01.162Z,5.25
2023-02-04T06:44:03.383Z,6.38
2023-02-04T06:45:06.089Z,7.55
2023-02-04T06:46:08.529Z,6.85
2023-02-04T06:47:10.830Z,5.88
2023-02-04T06:48:13.054Z,5.93
2023-02-04T06:49:15.280Z,7.43
2023-02-04T06:50:18.805Z,6.32
2023-02-04T06:51:21.052Z,6.18
2023-02-04T06:52:23.299Z,7.03
2023-02-04T06:53:25.825Z,6.15
2023-02-04T06:54:28.113Z,5.85
2023-02-04T06:55:30.399Z,5.45
2023-02-04T06:56:32.702Z,6.82
2023-02-04T06:57:34.899Z,7.30
2023-02-04T06:58:37.598Z,7.20
2023-02-04T06:59:41.375Z,5.55
2023-02-04T07:00:43.572Z,4.70
2023-02-04T07:01:46.258Z,5.32
2023-02-04T07:02:48.609Z,4.70
2023-02-04T07:03:50.998Z,4.90
2023-02-04T07:04:53.231Z,5.75
2023-02-04T07:05:55.467Z,6.20
2023-02-04T07:06:57.707Z,5.32
2023-02-04T07:08:00.125Z,4.78
2023-02-04T07:09:02.438Z,4.60
2023-02-04T07:10:04.974Z,4.90
2023-02-04T07:11:07.348Z,4.75
2023-02-04T07:12:09.602Z,5.00
2023-02-04T07:13:11.844Z,5.03
2023-02-04T07:14:14.104Z,6.43
2023-02-04T07:15:16.520Z,5.85
2023-02-04T07:16:18.819Z,4.75
2023-02-04T07:17:21.162Z,4.75
2023-02-04T07:18:23.731Z,5.18
2023-02-04T07:19:26.013Z,5.68
2023-02-04T07:20:28.230Z,6.63
2023-02-04T07:21:30.617Z,6.22
2023-02-04T07:22:32.823Z,6.72
2023-02-04T07:23:35.056Z,6.60
2023-02-04T07:24:37.329Z,6.35
2023-02-04T07:25:39.555Z,4.80
2023-02-04T07:26:41.787Z,5.13
2023-02-04T07:27:44.811Z,4.88
2023-02-04T07:28:47.294Z,6.70
2023-02-04T07:29:49.465Z,6.82
2023-02-04T07:30:52.099Z,6.53
2023-02-04T07:31:54.616Z,5.90
2023-02-04T07:32:57.112Z,6.22
2023-02-04T07:33:59.443Z,5.65
2023-02-04T07:35:01.825Z,5.35
2023-02-04T07:36:04.365Z,5.00
2023-02-04T07:37:06.645Z,5.40
2023-02-04T07:38:08.878Z,5.43
2023-02-04T07:39:11.262Z,6.03
2023-02-04T07:40:13.736Z,4.55
2023-02-04T07:41:15.927Z,4.82
2023-02-04T07:42:18.549Z,4.75
2023-02-04T07:43:28.141Z,4.68
2023-02-04T07:44:30.395Z,4.63
2023-02-04T07:45:32.756Z,4.07
2023-02-04T07:46:35.025Z,5.07
2023-02-04T07:47:37.227Z,4.63
2023-02-04T07:48:39.556Z,5.10
2023-02-04T07:49:41.828Z,4.85
2023-02-04T07:50:44.171Z,4.25
2023-02-04T07:51:46.470Z,4.72
2023-02-04T07:52:48.720Z,4.72
2023-02-04T07:53:50.971Z,5.20
2023-02-04T07:54:53.266Z,5.60
2023-02-04T07:55:55.469Z,6.57
2023-02-04T07:56:57.718Z,6.68
2023-02-04T07:57:59.923Z,5.70
2023-02-04T07:59:02.141Z,6.68
2023-02-04T08:00:05.510Z,7.10
2023-02-04T08:01:15.014Z,7.40
2023-02-04T08:02:17.321Z,11.60
2023-02-04T08:03:19.618Z,17.92
2023-02-04T08:04:21.821Z,13.88
2023-02-04T08:05:24.019Z,14.50
2023-02-04T08:06:26.224Z,14.30
2023-02-04T08:07:28.383Z,6.60
2023-02-04T08:08:30.652Z,5.78
2023-02-04T08:09:32.912Z,12.68
2023-02-04T08:10:35.180Z,11.93
2023-02-04T08:11:37.397Z,6.38
2023-02-04T08:12:39.654Z,5.15
2023-02-04T08:13:41.835Z,3.88
2023-02-04T08:14:44.004Z,5.07
2023-02-04T08:15:46.276Z,4.40
2023-02-04T08:16:48.508Z,4.55
2023-02-04T08:17:50.711Z,5.10
2023-02-04T08:18:52.867Z,4.45
2023-02-04T08:19:56.552Z,4.35
2023-02-04T08:21:00.528Z,4.38
2023-02-04T08:22:02.799Z,4.53
2023-02-04T08:23:05.022Z,4.05
2023-02-04T08:24:07.255Z,4.38
2023-02-04T08:25:11.579Z,4.95
2023-02-04T08:26:13.766Z,4.50
2023-02-04T08:27:16.064Z,4.43
2023-02-04T08:28:18.371Z,4.28
2023-02-04T08:29:20.680Z,4.53
2023-02-04T08:30:22.912Z,3.97
2023-02-04T08:31:25.203Z,4.00
2023-02-04T08:32:29.201Z,3.90
2023-02-04T08:33:31.514Z,4.03
2023-02-04T08:34:33.751Z,4.07
2023-02-04T08:35:35.963Z,4.45
2023-02-04T08:36:38.126Z,4.63
2023-02-04T08:37:40.692Z,4.53
2023-02-04T08:38:44.496Z,4.78
2023-02-04T08:39:47.385Z,4.30
2023-02-04T08:40:49.601Z,4.65
2023-02-04T08:41:51.773Z,4.45
2023-02-04T08:42:54.098Z,4.15
2023-02-04T08:43:56.354Z,4.15
2023-02-04T08:44:58.576Z,4.50
2023-02-04T08:46:00.908Z,4.45
2023-02-04T08:47:03.119Z,4.50
2023-02-04T08:48:06.500Z,3.75
2023-02-04T08:49:08.979Z,3.70
2023-02-04T08:50:11.479Z,4.20
2023-02-04T08:51:13.769Z,4.07
2023-02-04T08:52:16.098Z,3.88
2023-02-04T08:53:18.349Z,4.35
2023-02-04T08:54:20.821Z,4.80
2023-02-04T08:55:23.044Z,4.80
2023-02-04T08:56:25.369Z,4.57
2023-02-04T08:57:27.567Z,4.75
2023-02-04T08:58:30.441Z,4.10
2023-02-04T08:59:32.751Z,4.40
2023-02-04T09:00:35.384Z,3.88
2023-02-04T09:01:37.847Z,5.03
2023-02-04T09:02:40.018Z,5.10
2023-02-04T09:03:42.235Z,4.72
2023-02-04T09:04:44.441Z,4.10
2023-02-04T09:05:47.590Z,4.15
2023-02-04T09:06:51.377Z,5.25
2023-02-04T09:07:53.610Z,4.65
2023-02-04T09:08:55.871Z,4.60
2023-02-04T09:09:58.094Z,4.20
2023-02-04T09:11:00.319Z,4.68
2023-02-04T09:12:03.224Z,4.97
2023-02-04T09:13:05.378Z,4.72
2023-02-04T09:14:07.958Z,5.10
2023-02-04T09:15:11.923Z,4.88
2023-02-04T09:16:14.462Z,5.10
2023-02-04T09:17:16.840Z,5.05
2023-02-04T09:18:21.933Z,5.40
2023-02-04T09:19:25.564Z,5.45
2023-02-04T09:20:29.371Z,5.30
2023-02-04T09:21:33.294Z,5.10
2023-02-04T09:22:37.756Z,5.40
2023-02-04T09:23:39.922Z,4.43
2023-02-04T09:24:42.085Z,4.75
2023-02-04T09:25:45.747Z,5.25
2023-02-04T09:26:47.968Z,4.95
2023-02-04T09:27:50.230Z,5.30
2023-02-04T09:28:52.470Z,5.40
2023-02-04T09:29:54.721Z,5.43
2023-02-04T09:30:56.988Z,5.10
2023-02-04T09:31:59.334Z,6.25
2023-02-04T09:33:02.638Z,5.63
2023-02-04T09:34:05.061Z,4.82
2023-02-04T09:35:07.551Z,5.05
2023-02-04T09:36:10.045Z,5.28
2023-02-04T09:37:12.467Z,5.32
2023-02-04T09:38:15.258Z,4.70
2023-02-04T09:39:17.509Z,4.78
2023-02-04T09:40:20.802Z,4.95
2023-02-04T09:41:23.259Z,4.93
2023-02-04T09:42:26.575Z,5.03
2023-02-04T09:43:31.939Z,5.10
2023-02-04T09:44:34.276Z,4.57
2023-02-04T09:45:36.919Z,5.63
2023-02-04T09:46:39.464Z,4.85
2023-02-04T09:47:41.653Z,4.80
2023-02-04T09:48:43.910Z,5.53
2023-02-04T09:49:47.405Z,5.05
2023-02-04T09:50:51.577Z,4.63
2023-02-04T09:51:54.475Z,5.07
2023-02-04T09:52:58.531Z,4.80
2023-02-04T09:54:12.171Z,5.40
2023-02-04T09:55:16.281Z,4.93
2023-02-04T09:56:19.326Z,5.30
2023-02-04T09:57:21.582Z,5.30
2023-02-04T09:58:26.508Z,4.35
2023-02-04T09:59:29.478Z,4.82
2023-02-04T10:00:32.166Z,5.05
2023-02-04T10:01:34.601Z,5.28
2023-02-04T10:02:36.845Z,5.15
2023-02-04T10:03:46.465Z,5.20
2023-02-04T10:04:50.899Z,5.80
2023-02-04T10:05:53.556Z,5.40
2023-02-04T10:06:58.559Z,4.90
2023-02-04T10:08:00.830Z,6.15
2023-02-04T10:09:03.431Z,5.78
2023-02-04T10:10:06.117Z,5.38
2023-02-04T10:11:09.306Z,5.40
2023-02-04T10:12:11.518Z,5.53
2023-02-04T10:13:19.582Z,5.55
2023-02-04T10:14:23.200Z,5.30
2023-02-04T10:15:26.169Z,6.60
2023-02-04T10:16:31.356Z,5.45
2023-02-04T10:17:33.634Z,5.28
2023-02-04T10:18:36.050Z,5.40
2023-02-04T10:19:38.288Z,4.97
2023-02-04T10:20:40.508Z,5.38
2023-02-04T10:21:45.173Z,5.20
2023-02-04T10:22:50.265Z,5.22
2023-02-04T10:23:55.962Z,5.65
2023-02-04T10:24:58.269Z,4.75
2023-02-04T10:26:00.432Z,4.35
2023-02-04T10:27:10.476Z,5.05
2023-02-04T10:28:12.755Z,4.57
2023-02-04T10:29:17.765Z,5.32
2023-02-04T10:30:23.198Z,5.18
2023-02-04T10:31:40.323Z,4.55
2023-02-04T10:32:43.684Z,4.78
2023-02-04T10:33:45.939Z,5.38
2023-02-04T10:34:48.165Z,5.13
2023-02-04T10:35:52.456Z,5.18
2023-02-04T10:36:57.672Z,5.30
2023-02-04T10:38:05.767Z,4.93
2023-02-04T10:39:19.637Z,5.32
2023-02-04T10:40:35.796Z,4.47
2023-02-04T10:41:39.944Z,5.13
2023-02-04T10:42:49.441Z,4.95
2023-02-04T10:44:05.440Z,4.68
2023-02-04T10:45:24.042Z,5.40
2023-02-04T10:46:30.862Z,4.75
2023-02-04T10:47:33.082Z,5.20
2023-02-04T10:48:42.224Z,5.53
2023-02-04T10:50:02.930Z,5.53
2023-02-04T10:51:05.486Z,5.18
2023-02-04T10:52:17.462Z,5.35
2023-02-04T10:53:41.592Z,4.70
2023-02-04T10:54:44.097Z,4.90
2023-02-04T10:55:48.175Z,5.22
2023-02-04T10:56:50.428Z,5.00
2023-02-04T10:57:53.657Z,5.18
2023-02-04T10:58:55.900Z,5.30
2023-02-04T11:00:00.246Z,5.00
2023-02-04T11:01:02.653Z,4.55
2023-02-04T11:02:45.824Z,5.00
2023-02-04T11:03:49.531Z,5.00
2023-02-04T11:04:53.138Z,4.65
2023-02-04T11:06:00.218Z,4.90
2023-02-04T11:07:02.489Z,4.30
2023-02-04T11:08:26.369Z,4.38
2023-02-04T11:09:28.691Z,4.85
2023-02-04T11:10:34.123Z,4.70
2023-02-04T11:11:36.892Z,5.10
2023-02-04T11:12:55.540Z,4.70
2023-02-04T11:14:01.949Z,4.57
2023-02-04T11:15:05.157Z,4.35
2023-02-04T11:16:11.806Z,4.85
2023-02-04T11:17:20.654Z,4.93
2023-02-04T11:18:22.774Z,5.25
2023-02-04T11:19:35.181Z,5.38
2023-02-04T11:21:44.926Z,5.43
2023-02-04T11:22:53.630Z,5.45
2023-02-04T11:24:10.970Z,5.07
2023-02-04T11:25:36.153Z,5.22
2023-02-04T11:26:45.798Z,4.97
2023-02-04T11:27:48.049Z,5.53
2023-02-04T11:28:59.068Z,5.78
2023-02-04T11:30:20.347Z,6.45
2023-02-04T11:31:22.560Z,7.03
2023-02-04T11:32:37.922Z,7.93
2023-02-04T11:33:42.504Z,4.68
2023-02-04T11:34:50.996Z,4.95
2023-02-04T11:36:04.600Z,5.38
2023-02-04T11:37:19.199Z,4.97
2023-02-04T11:38:30.548Z,5.30
2023-02-04T11:39:49.817Z,5.35
2023-02-04T11:40:57.122Z,4.53
2023-02-04T11:42:00.291Z,4.55
2023-02-04T11:43:15.851Z,5.03
2023-02-04T11:44:19.448Z,4.68
2023-02-04T11:45:27.691Z,5.70
2023-02-04T11:46:30.184Z,5.07
2023-02-04T11:47:39.476Z,5.22
2023-02-04T11:48:42.580Z,5.30
2023-02-04T11:49:52.916Z,4.75
2023-02-04T11:51:03.133Z,5.03
2023-02-04T11:52:10.338Z,5.10
2023-02-04T11:53:12.616Z,4.40
2023-02-04T11:54:18.928Z,5.18
2023-02-04T11:55:21.155Z,4.40
2023-02-04T11:56:27.538Z,5.53
2023-02-04T11:57:37.344Z,4.75
2023-02-04T11:58:42.048Z,4.50
2023-02-04T11:59:44.224Z,5.20
2023-02-04T12:00:47.074Z,5.50
2023-02-04T12:01:49.426Z,5.07
2023-02-04T12:03:07.784Z,4.72
2023-02-04T12:04:23.587Z,4.55
2023-02-04T12:05:47.246Z,4.93
2023-02-04T12:07:03.819Z,4.75
2023-02-04T12:08:22.512Z,4.78
2023-02-04T12:09:29.719Z,4.60
2023-02-04T12:10:34.183Z,6.22
2023-02-04T12:11:36.375Z,5.68
2023-02-04T12:12:52.151Z,5.55
2023-02-04T12:13:56.406Z,6.35
2023-02-04T12:15:03.902Z,4.82
2023-02-04T12:16:07.651Z,4.80
2023-02-04T12:17:17.641Z,5.63
2023-02-04T12:18:19.901Z,4.60
2023-02-04T12:19:22.408Z,5.13
2023-02-04T12:20:24.606Z,4.78
2023-02-04T12:21:26.846Z,4.50
2023-02-04T12:22:29.292Z,4.82
2023-02-04T12:23:32.430Z,4.55
2023-02-04T12:24:34.616Z,4.63
2023-02-04T12:25:36.851Z,4.50
2023-02-04T12:26:39.065Z,3.92
2023-02-04T12:27:41.307Z,4.00
2023-02-04T12:28:43.527Z,4.28
2023-02-04T12:29:45.945Z,4.18
2023-02-04T12:30:48.462Z,4.75
2023-02-04T12:31:50.809Z,4.47
2023-02-04T12:32:53.798Z,4.35
2023-02-04T12:33:55.998Z,4.70
2023-02-04T12:34:58.205Z,4.80
2023-02-04T12:36:00.578Z,4.18
2023-02-04T12:37:02.785Z,4.18
2023-02-04T12:38:04.995Z,4.28
2023-02-04T12:39:07.165Z,3.92
2023-02-04T12:40:15.886Z,4.72
2023-02-04T12:41:19.839Z,3.95
2023-02-04T12:42:22.148Z,4.53
2023-02-04T12:43:27.831Z,4.55
2023-02-04T12:44:31.054Z,4.78
2023-02-04T12:45:34.164Z,4.70
2023-02-04T12:46:36.586Z,4.38
2023-02-04T12:47:38.839Z,4.50
2023-02-04T12:48:41.136Z,4.95
2023-02-04T12:49:43.717Z,4.93
2023-02-04T12:50:45.932Z,4.72
2023-02-04T12:51:48.158Z,4.43
2023-02-04T12:52:51.904Z,3.60
2023-02-04T12:53:54.214Z,3.88
2023-02-04T12:54:56.387Z,4.25
2023-02-04T12:55:58.631Z,5.60
2023-02-04T12:57:02.670Z,5.50
2023-02-04T12:58:05.065Z,4.50
2023-02-04T12:59:07.302Z,4.25
2023-02-04T13:00:10.157Z,4.43
2023-02-04T13:01:12.491Z,4.68
2023-02-04T13:02:15.357Z,3.95
2023-02-04T13:03:17.618Z,4.85
2023-02-04T13:04:19.857Z,4.50
2023-02-04T13:05:22.118Z,4.60
2023-02-04T13:06:24.333Z,4.95
2023-02-04T13:07:26.560Z,3.85
2023-02-04T13:08:28.780Z,4.20
2023-02-04T13:09:30.954Z,4.95
2023-02-04T13:10:33.145Z,4.60
2023-02-04T13:11:35.325Z,4.20
2023-02-04T13:12:37.614Z,4.78
2023-02-04T13:13:40.503Z,4.55
2023-02-04T13:14:42.815Z,4.95
2023-02-04T13:15:45.603Z,4.10
2023-02-04T13:16:47.765Z,4.28
2023-02-04T13:17:49.932Z,4.78
2023-02-04T13:18:52.295Z,3.45
2023-02-04T13:19:54.499Z,3.53
2023-02-04T13:20:56.648Z,4.50
2023-02-04T13:21:59.484Z,4.53
2023-02-04T13:23:01.798Z,3.83
2023-02-04T13:24:04.233Z,4.00
2023-02-04T13:25:06.736Z,3.85
2023-02-04T13:26:08.946Z,3.92
2023-02-04T13:27:11.193Z,4.75
2023-02-04T13:28:13.963Z,5.40
2023-02-04T13:29:16.219Z,5.68
2023-02-04T13:30:18.536Z,5.15
2023-02-04T13:31:21.023Z,4.57
2023-02-04T13:32:23.585Z,4.43
2023-02-04T13:33:25.823Z,4.75
2023-02-04T13:34:28.135Z,5.47
2023-02-04T13:35:30.757Z,5.78
2023-02-04T13:36:33.244Z,5.47
2023-02-04T13:37:35.531Z,4.50
2023-02-04T13:38:37.714Z,5.07
2023-02-04T13:39:39.906Z,4.93
2023-02-04T13:40:42.156Z,7.95
2023-02-04T13:41:44.532Z,6.18
2023-02-04T13:42:46.771Z,5.05
2023-02-04T13:43:49.013Z,4.97
2023-02-04T13:44:51.256Z,5.22
2023-02-04T13:45:53.506Z,4.85
2023-02-04T13:46:55.769Z,6.20
2023-02-04T13:47:58.025Z,4.80
2023-02-04T13:49:00.459Z,5.18
2023-02-04T13:50:02.762Z,4.93
2023-02-04T13:51:06.498Z,5.28
2023-02-04T13:52:08.709Z,5.30
2023-02-04T13:53:10.848Z,5.45
2023-02-04T13:54:13.425Z,5.40
2023-02-04T13:55:15.691Z,5.20
2023-02-04T13:56:17.864Z,4.63
2023-02-04T13:57:21.090Z,4.82
2023-02-04T13:58:23.413Z,4.65
2023-02-04T13:59:25.582Z,4.60
2023-02-04T14:00:27.811Z,5.97
2023-02-04T14:01:30.228Z,4.75
2023-02-04T14:02:32.821Z,5.78
2023-02-04T14:03:35.034Z,5.07
2023-02-04T14:04:37.181Z,6.85
2023-02-04T14:05:39.350Z,6.10
2023-02-04T14:06:43.560Z,5.63
2023-02-04T14:07:45.953Z,6.72
2023-02-04T14:08:48.523Z,9.60
2023-02-04T14:09:50.837Z,5.93